Time;durP1;ratioP1;P1;durP2;ratioP2;P2;SDS_P1;SDS_P2;PMS_P1;PMS_P2;Temp;Humidity;BMP_temperature;BMP_pressure;BME280_temperature;BME280_humidity;BME280_pressure;Samples;Min_cycle;Max_cycle;Signal;HPM_P1;HPM_P2
2023/12/19 00:01:28;;;;;;;8.82;4.93;;;6.80;99.90;;;;;;5045884;28;20048;-67
2023/12/19 00:03:54;;;;;;;7.32;3.97;;;6.80;99.90;;;;;;5041192;28;20082;-67
2023/12/19 00:06:20;;;;;;;7.72;3.88;;;6.80;99.90;;;;;;5041697;28;20749;-67
2023/12/19 00:08:45;;;;;;;5.97;3.65;;;6.80;99.90;;;;;;5037452;28;20053;-67
2023/12/19 00:11:11;;;;;;;8.98;4.15;;;6.80;99.90;;;;;;5041276;28;20102;-67
2023/12/19 00:13:37;;;;;;;7.25;3.83;;;6.80;99.90;;;;;;5037814;28;20061;-67
2023/12/19 00:16:03;;;;;;;7.15;3.67;;;6.80;99.90;;;;;;5044491;28;20075;-67
2023/12/19 00:18:30;;;;;;;7.95;4.22;;;6.80;99.90;;;;;;5042240;28;20040;-67
2023/12/19 00:20:56;;;;;;;8.93;4.25;;;6.80;99.90;;;;;;5036007;28;20047;-67
2023/12/19 00:23:22;;;;;;;5.22;3.35;;;6.80;99.90;;;;;;5035613;28;20041;-67
2023/12/19 00:25:48;;;;;;;7.80;3.45;;;6.90;99.90;;;;;;5040491;28;20416;-67
2023/12/19 00:28:14;;;;;;;5.15;3.53;;;6.90;99.90;;;;;;5042796;28;20029;-66
2023/12/19 00:30:40;;;;;;;8.48;3.72;;;6.80;99.90;;;;;;5041329;28;20029;-66
2023/12/19 00:33:06;;;;;;;5.35;3.85;;;6.90;99.90;;;;;;5037925;28;20033;-67
2023/12/19 00:35:34;;;;;;;5.85;3.78;;;6.80;99.90;;;;;;5043188;28;20389;-67
2023/12/19 00:38:04;;;;;;;6.85;3.92;;;6.80;99.90;;;;;;5044254;28;20969;-67
2023/12/19 00:40:30;;;;;;;4.80;2.88;;;7.00;99.90;;;;;;5042585;28;20035;-67
2023/12/19 00:42:55;;;;;;;7.90;3.88;;;7.10;99.90;;;;;;5041819;28;20033;-67
2023/12/19 00:45:21;;;;;;;6.25;3.63;;;7.20;99.90;;;;;;5046264;28;20585;-67
2023/12/19 00:47:47;;;;;;;10.95;4.32;;;7.10;99.90;;;;;;5039446;28;20852;-67
2023/12/19 00:50:15;;;;;;;7.07;3.78;;;7.20;99.90;;;;;;5043734;28;20029;-67
2023/12/19 00:52:42;;;;;;;7.70;3.50;;;7.40;99.90;;;;;;5039556;28;20153;-67
2023/12/19 00:55:08;;;;;;;6.70;3.72;;;7.40;99.90;;;;;;5039086;28;20034;-67
2023/12/19 00:57:34;;;;;;;5.45;2.97;;;7.30;99.90;;;;;;5041925;28;20515;-67
2023/12/19 01:00:00;;;;;;;6.93;3.33;;;7.30;99.90;;;;;;5041565;28;20037;-67
2023/12/19 01:02:27;;;;;;;5.10;3.53;;;7.40;99.90;;;;;;5044977;28;20037;-66
2023/12/19 01:04:56;;;;;;;8.32;3.72;;;7.30;99.90;;;;;;5036678;28;20087;-67
2023/12/19 01:07:22;;;;;;;5.90;3.45;;;7.20;99.90;;;;;;5042348;28;20496;-67
2023/12/19 01:09:48;;;;;;;8.35;3.22;;;7.20;99.90;;;;;;5041833;28;20089;-67
2023/12/19 01:12:14;;;;;;;6.45;3.53;;;7.20;99.90;;;;;;5040590;28;20032;-67
2023/12/19 01:14:41;;;;;;;5.20;3.38;;;7.30;99.90;;;;;;5042974;28;20127;-67
2023/12/19 01:17:06;;;;;;;5.50;3.05;;;7.30;99.90;;;;;;5039596;28;20041;-67
2023/12/19 01:19:33;;;;;;;7.63;3.08;;;7.40;99.90;;;;;;5041070;28;20459;-67
2023/12/19 01:21:58;;;;;;;4.97;3.15;;;7.50;99.90;;;;;;5038750;28;20056;-67
2023/12/19 01:24:24;;;;;;;5.13;3.05;;;7.50;99.90;;;;;;5044219;28;20395;-67
2023/12/19 01:26:51;;;;;;;3.97;2.75;;;7.40;99.90;;;;;;5045641;28;20064;-67
2023/12/19 01:29:18;;;;;;;4.97;3.38;;;7.50;99.90;;;;;;5042902;28;20037;-67
2023/12/19 01:31:44;;;;;;;4.97;2.95;;;7.50;99.90;;;;;;5041258;28;20114;-67
2023/12/19 01:34:11;;;;;;;5.18;3.28;;;7.60;99.90;;;;;;5039197;28;20030;-67
2023/12/19 01:36:41;;;;;;;4.63;2.95;;;7.50;99.90;;;;;;5041817;28;20079;-67
2023/12/19 01:39:08;;;;;;;6.22;3.10;;;7.50;99.90;;;;;;5041801;28;20049;-67
2023/12/19 01:41:34;;;;;;;5.45;2.88;;;7.50;99.90;;;;;;5041639;28;20591;-67
2023/12/19 01:44:00;;;;;;;4.80;2.92;;;7.50;99.90;;;;;;5038372;28;20061;-67
2023/12/19 01:46:26;;;;;;;6.43;3.05;;;7.60;99.90;;;;;;5043093;28;20874;-67
2023/12/19 01:48:52;;;;;;;4.30;2.65;;;7.70;99.90;;;;;;5042141;28;20670;-67
2023/12/19 01:51:18;;;;;;;4.55;3.00;;;7.70;99.90;;;;;;5043592;28;20079;-67
2023/12/19 01:53:47;;;;;;;6.60;3.30;;;7.80;99.90;;;;;;5040123;28;20880;-67
2023/12/19 01:56:17;;;;;;;4.40;3.20;;;7.80;99.90;;;;;;5043706;28;20120;-67
2023/12/19 01:58:43;;;;;;;4.75;3.08;;;7.70;99.90;;;;;;5038521;28;20385;-67
2023/12/19 02:01:11;;;;;;;4.85;3.08;;;7.70;99.90;;;;;;5035857;28;20399;-67
2023/12/19 02:03:39;;;;;;;4.85;3.40;;;7.80;99.90;;;;;;5040784;28;20033;-67
2023/12/19 02:06:05;;;;;;;6.05;3.20;;;7.80;99.90;;;;;;5039626;28;20473;-67
2023/12/19 02:08:30;;;;;;;5.60;3.10;;;7.80;99.90;;;;;;5042516;28;20549;-67
2023/12/19 02:10:56;;;;;;;5.95;3.17;;;7.90;99.90;;;;;;5032211;28;20034;-67
2023/12/19 02:13:23;;;;;;;7.57;3.40;;;7.90;99.90;;;;;;5044939;28;20087;-67
2023/12/19 02:15:49;;;;;;;4.07;2.85;;;7.90;99.90;;;;;;5042368;28;20814;-67
2023/12/19 02:18:19;;;;;;;6.53;3.67;;;8.00;99.90;;;;;;5040782;28;21417;-67
2023/12/19 02:20:45;;;;;;;6.43;3.47;;;8.00;99.90;;;;;;5040608;28;20408;-67
2023/12/19 02:23:14;;;;;;;8.48;3.67;;;8.10;99.90;;;;;;5033860;28;20025;-67
2023/12/19 02:25:41;;;;;;;9.02;3.60;;;8.10;99.90;;;;;;5042677;28;20659;-67
2023/12/19 02:28:08;;;;;;;8.30;4.05;;;8.00;99.90;;;;;;5045059;28;20029;-67
2023/12/19 02:30:36;;;;;;;6.05;3.58;;;8.00;99.90;;;;;;5044118;28;20664;-67
2023/12/19 02:33:03;;;;;;;5.28;3.85;;;7.90;99.90;;;;;;5038140;28;20472;-67
2023/12/19 02:35:29;;;;;;;6.70;3.50;;;7.80;99.90;;;;;;5046531;28;20082;-67
2023/12/19 02:37:55;;;;;;;8.05;3.80;;;7.80;99.90;;;;;;5045671;28;20552;-67
2023/12/19 02:40:21;;;;;;;7.18;4.28;;;7.80;99.90;;;;;;5046918;28;20036;-67
2023/12/19 02:42:46;;;;;;;6.72;4.07;;;7.80;99.90;;;;;;5039655;28;20041;-67
2023/12/19 02:45:12;;;;;;;8.38;4.43;;;7.90;99.90;;;;;;5047524;28;20120;-67
2023/12/19 02:47:38;;;;;;;8.38;4.90;;;7.90;99.90;;;;;;5041900;28;20029;-67
2023/12/19 02:50:05;;;;;;;8.05;4.45;;;7.90;99.90;;;;;;5042348;28;20037;-67
2023/12/19 02:52:31;;;;;;;7.40;4.32;;;8.00;99.90;;;;;;5047385;28;20029;-67
2023/12/19 02:54:57;;;;;;;7.65;4.70;;;8.10;99.90;;;;;;5045272;28;20508;-67
2023/12/19 02:57:22;;;;;;;7.72;4.82;;;8.10;99.90;;;;;;5044640;28;20190;-67
2023/12/19 02:59:48;;;;;;;9.02;4.45;;;8.10;99.90;;;;;;5045616;28;20220;-67
2023/12/19 03:02:14;;;;;;;8.02;4.72;;;8.20;99.90;;;;;;5047933;28;20041;-67
2023/12/19 03:04:40;;;;;;;7.45;4.55;;;8.00;99.90;;;;;;5046141;28;20520;-67
2023/12/19 03:07:07;;;;;;;7.82;4.50;;;8.00;99.90;;;;;;5041441;28;20036;-67
2023/12/19 03:09:33;;;;;;;6.95;4.68;;;8.00;99.90;;;;;;5047327;28;20029;-67
2023/12/19 03:12:06;;;;;;;7.72;4.53;;;7.90;99.90;;;;;;5044005;28;20032;-67
2023/12/19 03:14:34;;;;;;;8.57;5.07;;;8.10;99.90;;;;;;5044580;28;20025;-67
2023/12/19 03:17:01;;;;;;;10.05;4.90;;;8.10;99.90;;;;;;5043481;28;20048;-67
2023/12/19 03:19:27;;;;;;;6.82;4.43;;;8.10;99.90;;;;;;5041212;28;20397;-67
2023/12/19 03:21:54;;;;;;;10.55;5.35;;;8.20;99.90;;;;;;5042965;28;20128;-67
2023/12/19 03:24:20;;;;;;;8.73;4.85;;;8.30;99.90;;;;;;5044227;28;20068;-67
2023/12/19 03:26:46;;;;;;;7.97;4.55;;;8.20;99.90;;;;;;5036421;28;20041;-67
2023/12/19 03:29:12;;;;;;;9.35;5.38;;;8.20;99.90;;;;;;5044632;28;20037;-67
2023/12/19 03:31:38;;;;;;;7.63;4.43;;;8.30;99.90;;;;;;5039807;28;20370;-67
2023/12/19 03:34:04;;;;;;;9.23;4.95;;;8.30;99.90;;;;;;5038862;28;20029;-67
2023/12/19 03:36:30;;;;;;;7.82;5.13;;;8.30;99.90;;;;;;5042683;28;20087;-67
2023/12/19 03:38:56;;;;;;;7.13;4.65;;;8.20;99.90;;;;;;5036210;28;20048;-67
2023/12/19 03:41:21;;;;;;;8.75;4.93;;;8.20;99.90;;;;;;5045107;28;20123;-67
2023/12/19 03:43:47;;;;;;;7.70;4.85;;;8.30;99.90;;;;;;5042089;28;20385;-67
2023/12/19 03:46:14;;;;;;;8.77;4.57;;;8.40;99.90;;;;;;5041141;28;20036;-67
2023/12/19 03:48:44;;;;;;;8.18;4.70;;;8.30;99.90;;;;;;5044384;28;20778;-67
2023/12/19 03:51:10;;;;;;;10.27;5.00;;;8.30;99.90;;;;;;5041578;28;20040;-67
2023/12/19 03:53:36;;;;;;;7.60;4.78;;;8.30;99.90;;;;;;5046725;28;20385;-67
2023/12/19 03:56:02;;;;;;;8.43;5.05;;;8.40;99.90;;;;;;5038688;28;20033;-67
2023/12/19 03:58:28;;;;;;;9.88;4.60;;;8.40;99.90;;;;;;5046410;28;20165;-67
2023/12/19 04:00:54;;;;;;;8.93;5.22;;;8.50;99.90;;;;;;5041598;28;20095;-67
2023/12/19 04:03:20;;;;;;;8.27;4.60;;;8.60;99.90;;;;;;5031763;28;20037;-67
2023/12/19 04:05:45;;;;;;;10.10;4.50;;;8.60;99.90;;;;;;5041642;28;20037;-67
2023/12/19 04:08:11;;;;;;;8.55;5.03;;;8.60;99.90;;;;;;5045375;28;20032;-67
2023/12/19 04:10:37;;;;;;;7.60;4.63;;;8.50;99.90;;;;;;5038734;28;20393;-67
2023/12/19 04:13:03;;;;;;;8.27;4.68;;;8.40;99.90;;;;;;5042619;28;20033;-67
2023/12/19 04:15:30;;;;;;;6.50;4.07;;;8.40;99.90;;;;;;5000580;28;1267602;-68
2023/12/19 04:17:56;;;;;;;8.30;4.40;;;8.50;99.90;;;;;;5034202;28;20109;-67
2023/12/19 04:20:21;;;;;;;9.93;4.22;;;8.40;99.90;;;;;;5046760;28;20048;-67
2023/12/19 04:22:47;;;;;;;6.35;4.35;;;8.30;99.90;;;;;;5035799;28;20036;-67
2023/12/19 04:25:13;;;;;;;7.97;4.93;;;8.30;99.90;;;;;;5041372;28;20594;-67
2023/12/19 04:27:39;;;;;;;8.10;4.78;;;8.30;99.90;;;;;;5038605;28;20037;-67
2023/12/19 04:30:06;;;;;;;8.75;4.97;;;8.40;99.90;;;;;;5042272;28;20037;-67
2023/12/19 04:32:31;;;;;;;7.80;3.72;;;8.40;99.90;;;;;;5039643;28;20497;-67
2023/12/19 04:34:57;;;;;;;9.65;4.68;;;8.40;99.90;;;;;;5043052;28;20112;-67
2023/12/19 04:37:23;;;;;;;11.38;5.13;;;8.40;99.90;;;;;;5046925;28;20367;-67
2023/12/19 04:39:49;;;;;;;7.32;4.65;;;8.50;99.90;;;;;;5043790;28;20044;-67
2023/12/19 04:42:17;;;;;;;7.20;5.03;;;8.60;99.90;;;;;;5044148;28;20037;-67
2023/12/19 04:44:46;;;;;;;8.70;4.97;;;8.50;99.90;;;;;;5043816;28;20032;-67
2023/12/19 04:47:13;;;;;;;7.40;4.78;;;8.60;99.90;;;;;;5044841;28;20033;-67
2023/12/19 04:49:39;;;;;;;8.98;4.93;;;8.50;99.90;;;;;;5043092;28;20028;-68
2023/12/19 04:52:05;;;;;;;5.63;3.95;;;8.50;99.90;;;;;;5037654;28;20034;-67
2023/12/19 04:54:32;;;;;;;9.57;5.32;;;8.60;99.90;;;;;;5045460;28;20036;-68
2023/12/19 04:56:58;;;;;;;7.75;5.13;;;8.50;99.90;;;;;;5039194;28;20482;-67
2023/12/19 04:59:24;;;;;;;8.00;4.85;;;8.40;99.90;;;;;;5046326;28;20064;-67
2023/12/19 05:01:50;;;;;;;10.05;4.88;;;8.30;99.90;;;;;;5038609;28;20037;-67
2023/12/19 05:04:16;;;;;;;8.70;5.95;;;8.30;99.90;;;;;;5037050;28;20033;-67
2023/12/19 05:06:42;;;;;;;11.50;5.07;;;8.30;99.90;;;;;;5040132;28;20546;-67
2023/12/19 05:09:08;;;;;;;9.75;5.78;;;8.30;99.90;;;;;;5040096;28;20034;-67
2023/12/19 05:11:35;;;;;;;8.93;5.57;;;8.30;99.90;;;;;;5042156;28;20029;-67
2023/12/19 05:14:01;;;;;;;9.95;5.88;;;8.20;99.90;;;;;;5043628;28;20049;-67
2023/12/19 05:16:27;;;;;;;10.10;6.28;;;8.10;99.90;;;;;;5042508;28;20416;-67
2023/12/19 05:18:53;;;;;;;10.43;6.28;;;8.00;99.90;;;;;;5040110;28;20040;-67
2023/12/19 05:21:21;;;;;;;8.70;5.70;;;7.90;99.90;;;;;;5045397;28;20116;-67
2023/12/19 05:23:47;;;;;;;9.27;5.13;;;8.10;99.90;;;;;;5045931;28;20199;-67
2023/12/19 05:26:13;;;;;;;9.70;5.60;;;8.10;99.90;;;;;;5045759;28;20037;-67
2023/12/19 05:28:39;;;;;;;10.25;5.00;;;8.00;99.90;;;;;;5043910;28;20036;-67
2023/12/19 05:31:06;;;;;;;10.35;4.47;;;8.00;99.90;;;;;;5042774;28;20086;-67
2023/12/19 05:33:34;;;;;;;10.07;5.53;;;8.10;99.90;;;;;;5037235;28;20060;-67
2023/12/19 05:36:00;;;;;;;12.45;5.13;;;8.10;99.90;;;;;;5042881;28;20037;-67
2023/12/19 05:38:26;;;;;;;8.25;4.63;;;8.20;99.90;;;;;;5044008;28;20037;-67
2023/12/19 05:40:56;;;;;;;8.02;4.90;;;8.10;99.90;;;;;;5039253;28;20137;-67
2023/12/19 05:43:23;;;;;;;8.05;5.28;;;8.00;99.90;;;;;;5036364;28;20025;-67
2023/12/19 05:45:48;;;;;;;7.85;4.78;;;8.00;99.90;;;;;;5037962;28;20125;-67
2023/12/19 05:48:14;;;;;;;9.02;4.90;;;7.90;99.90;;;;;;5040427;28;20128;-67
2023/12/19 05:50:40;;;;;;;9.57;5.15;;;8.00;99.90;;;;;;5043452;28;20036;-67
2023/12/19 05:53:06;;;;;;;9.13;4.95;;;8.10;99.90;;;;;;5045242;28;20025;-67
2023/12/19 05:55:32;;;;;;;9.35;5.38;;;8.10;99.90;;;;;;5035315;28;20032;-67
2023/12/19 05:57:58;;;;;;;7.68;5.13;;;8.20;99.90;;;;;;5030383;28;20080;-67
2023/12/19 06:00:23;;;;;;;11.15;4.82;;;8.30;99.90;;;;;;5041134;28;20056;-67
2023/12/19 06:02:52;;;;;;;9.35;5.00;;;8.20;99.90;;;;;;5039904;28;20080;-67
2023/12/19 06:05:19;;;;;;;9.40;5.20;;;7.90;99.90;;;;;;5042076;28;20087;-67
2023/12/19 06:07:45;;;;;;;8.85;5.22;;;7.90;99.90;;;;;;5037027;28;20037;-67
2023/12/19 06:10:12;;;;;;;9.98;5.63;;;7.90;99.90;;;;;;5037918;28;20345;-67
2023/12/19 06:12:39;;;;;;;8.32;5.55;;;8.00;99.90;;;;;;5040902;28;20098;-67
2023/12/19 06:15:08;;;;;;;8.05;5.32;;;8.10;99.90;;;;;;5043133;28;20069;-67
2023/12/19 06:17:41;;;;;;;10.43;5.40;;;8.20;99.90;;;;;;5040240;28;20044;-67
2023/12/19 06:20:09;;;;;;;8.50;5.50;;;8.20;99.90;;;;;;5043371;28;20048;-67
2023/12/19 06:22:35;;;;;;;11.95;6.00;;;8.30;99.90;;;;;;5044579;28;20029;-67
2023/12/19 06:25:01;;;;;;;9.48;5.68;;;8.30;99.90;;;;;;5045445;28;20041;-67
2023/12/19 06:27:27;;;;;;;11.93;6.25;;;8.30;99.90;;;;;;5040718;28;20044;-67
2023/12/19 06:29:54;;;;;;;12.45;6.03;;;8.20;99.90;;;;;;5041634;28;20029;-67
2023/12/19 06:32:20;;;;;;;12.27;5.82;;;8.20;99.90;;;;;;5041130;28;20103;-67
2023/12/19 06:34:46;;;;;;;11.27;5.25;;;8.20;99.90;;;;;;5042734;28;20449;-67
2023/12/19 06:37:12;;;;;;;9.25;4.93;;;8.20;99.90;;;;;;5037107;28;20038;-67
2023/12/19 06:39:37;;;;;;;8.30;4.75;;;8.40;99.90;;;;;;5043787;28;20029;-67
2023/12/19 06:42:04;;;;;;;7.35;4.50;;;8.50;99.90;;;;;;5038440;28;20853;-67
2023/12/19 06:44:29;;;;;;;8.02;4.07;;;8.50;99.90;;;;;;5038072;28;20041;-67
2023/12/19 06:46:55;;;;;;;6.85;4.00;;;8.50;99.90;;;;;;5043083;28;20037;-67
2023/12/19 06:49:22;;;;;;;7.25;4.10;;;8.50;99.90;;;;;;5044411;28;20122;-67
2023/12/19 06:51:48;;;;;;;6.20;4.10;;;8.40;99.90;;;;;;5042562;28;20036;-67
2023/12/19 06:54:14;;;;;;;7.38;4.47;;;8.40;99.90;;;;;;5043405;28;20029;-67
2023/12/19 06:56:40;;;;;;;9.63;4.82;;;8.40;99.90;;;;;;5039894;28;20064;-67
2023/12/19 06:59:06;;;;;;;11.20;5.32;;;8.40;99.90;;;;;;5039704;28;20478;-67
2023/12/19 07:01:32;;;;;;;6.53;4.05;;;8.40;99.90;;;;;;5035327;28;20112;-67
2023/12/19 07:03:58;;;;;;;10.98;5.25;;;8.30;99.90;;;;;;5041847;28;20525;-67
2023/12/19 07:06:25;;;;;;;10.23;4.90;;;8.20;99.90;;;;;;5037707;28;20033;-67
2023/12/19 07:08:51;;;;;;;15.40;6.43;;;8.30;99.90;;;;;;5041878;28;20083;-67
2023/12/19 07:11:17;;;;;;;15.27;6.25;;;8.30;99.90;;;;;;5044140;28;20051;-67
2023/12/19 07:13:43;;;;;;;68.75;19.48;;;8.20;99.90;;;;;;5045903;28;20120;-67
2023/12/19 07:16:14;;;;;;;174.40;42.17;;;8.30;99.90;;;;;;5039616;28;20163;-67
2023/12/19 07:18:40;;;;;;;75.78;21.52;;;8.40;99.90;;;;;;5041615;28;20024;-67
2023/12/19 07:21:07;;;;;;;81.80;24.50;;;8.50;99.90;;;;;;5042734;28;20048;-67
2023/12/19 07:23:33;;;;;;;30.42;10.48;;;8.60;99.90;;;;;;5045644;28;20037;-67
2023/12/19 07:25:59;;;;;;;47.10;16.77;;;8.70;99.90;;;;;;5039856;28;20041;-67
2023/12/19 07:28:25;;;;;;;42.67;15.25;;;8.80;99.90;;;;;;5046903;28;20033;-67
2023/12/19 07:30:51;;;;;;;25.05;9.73;;;8.90;99.90;;;;;;5045192;28;20037;-67
2023/12/19 07:33:16;;;;;;;13.57;5.60;;;8.70;99.90;;;;;;5043159;28;20469;-68
2023/12/19 07:35:42;;;;;;;46.25;15.70;;;8.60;99.90;;;;;;5047728;28;20579;-67
2023/12/19 07:38:08;;;;;;;36.05;14.00;;;8.50;99.90;;;;;;5047968;28;20043;-67
2023/12/19 07:40:35;;;;;;;23.40;9.43;;;8.60;99.90;;;;;;5045072;28;20041;-67
2023/12/19 07:43:02;;;;;;;64.72;19.60;;;8.70;99.90;;;;;;5041503;28;20033;-67
2023/12/19 07:45:28;;;;;;;8.25;4.45;;;8.80;99.90;;;;;;5047989;28;20055;-67
2023/12/19 07:47:54;;;;;;;19.17;6.07;;;8.70;99.90;;;;;;5035063;28;20485;-67
2023/12/19 07:50:21;;;;;;;7.20;3.80;;;8.70;99.90;;;;;;5038807;28;20037;-67
2023/12/19 07:52:46;;;;;;;21.27;9.13;;;8.60;99.90;;;;;;5042242;28;20116;-67
2023/12/19 07:55:12;;;;;;;9.88;4.80;;;8.60;99.90;;;;;;5044759;28;20500;-67
2023/12/19 07:57:38;;;;;;;8.23;4.40;;;8.60;99.90;;;;;;5047581;28;20037;-67
2023/12/19 08:00:05;;;;;;;14.93;10.63;;;8.50;99.90;;;;;;5039213;28;20045;-67
2023/12/19 08:02:38;;;;;;;29.45;15.00;;;8.40;99.90;;;;;;5040074;28;20420;-67
2023/12/19 08:05:04;;;;;;;91.57;37.95;;;8.30;99.90;;;;;;5045652;28;20038;-67
2023/12/19 08:07:30;;;;;;;35.05;17.77;;;8.40;99.90;;;;;;5037756;28;20064;-67
2023/12/19 08:09:56;;;;;;;16.58;7.30;;;8.50;99.90;;;;;;5034997;28;20599;-67
2023/12/19 08:12:22;;;;;;;15.23;8.38;;;8.50;99.90;;;;;;5046882;28;20455;-67
2023/12/19 08:14:47;;;;;;;8.18;5.05;;;8.50;99.90;;;;;;5044026;28;20485;-67
2023/12/19 08:17:14;;;;;;;8.50;4.25;;;8.50;99.90;;;;;;5044773;28;20615;-67
2023/12/19 08:19:40;;;;;;;8.63;3.97;;;8.60;99.90;;;;;;5041552;28;20044;-67
2023/12/19 08:22:06;;;;;;;6.70;4.28;;;8.50;99.90;;;;;;5040412;28;20106;-67
2023/12/19 08:24:31;;;;;;;8.18;3.90;;;8.60;99.90;;;;;;5043177;28;20032;-67
2023/12/19 08:26:57;;;;;;;7.10;3.78;;;8.60;99.90;;;;;;5036649;28;20051;-67
2023/12/19 08:29:23;;;;;;;7.90;3.78;;;8.70;99.90;;;;;;5045410;28;20025;-67
2023/12/19 08:31:49;;;;;;;5.68;3.90;;;8.60;99.90;;;;;;5046294;28;20078;-67
2023/12/19 08:34:18;;;;;;;7.25;4.28;;;8.50;99.90;;;;;;5047052;28;20037;-68
2023/12/19 08:36:44;;;;;;;11.23;4.88;;;8.50;99.90;;;;;;5019968;28;20509;-67
2023/12/19 08:39:10;;;;;;;7.22;4.40;;;8.40;99.90;;;;;;5037172;28;20034;-67
2023/12/19 08:41:37;;;;;;;7.93;4.07;;;8.40;99.90;;;;;;5041560;28;20045;-67
2023/12/19 08:44:03;;;;;;;7.45;3.92;;;8.20;99.90;;;;;;5044309;28;20099;-67
2023/12/19 08:46:29;;;;;;;7.20;4.32;;;8.10;99.90;;;;;;5036222;28;20115;-67
2023/12/19 08:48:55;;;;;;;7.32;4.22;;;8.10;99.90;;;;;;5042974;28;20036;-67
2023/12/19 08:51:21;;;;;;;6.68;3.70;;;8.00;99.90;;;;;;5041680;28;20088;-67
2023/12/19 08:53:47;;;;;;;7.70;4.18;;;8.00;99.90;;;;;;5045237;28;20765;-67
2023/12/19 08:56:13;;;;;;;8.68;3.95;;;8.00;99.90;;;;;;5038221;28;20026;-67
2023/12/19 08:58:39;;;;;;;6.70;3.85;;;8.00;99.90;;;;;;5033620;28;20028;-67
2023/12/19 09:01:05;;;;;;;8.32;5.00;;;8.00;99.90;;;;;;5037685;28;20132;-67
2023/12/19 09:03:31;;;;;;;8.05;3.70;;;8.10;99.90;;;;;;5039576;28;20269;-67
2023/12/19 09:05:56;;;;;;;12.35;7.00;;;8.10;99.90;;;;;;5044339;28;20082;-67
2023/12/19 09:08:23;;;;;;;9.05;5.18;;;8.00;99.90;;;;;;5043435;28;20044;-67
2023/12/19 09:10:49;;;;;;;7.47;3.65;;;8.00;99.90;;;;;;5037781;28;20068;-65
2023/12/19 09:13:16;;;;;;;7.93;5.07;;;8.00;99.90;;;;;;5023899;28;20069;-67
2023/12/19 09:15:42;;;;;;;7.07;4.45;;;7.90;99.90;;;;;;5006045;28;20038;-67
2023/12/19 09:18:07;;;;;;;8.00;4.35;;;7.80;99.90;;;;;;5003490;28;20504;-67
2023/12/19 09:20:36;;;;;;;11.25;6.30;;;7.80;99.90;;;;;;5005534;28;20041;-67
2023/12/19 09:23:02;;;;;;;8.07;4.43;;;7.90;99.90;;;;;;5006147;28;20125;-67
2023/12/19 09:25:27;;;;;;;8.20;4.82;;;7.70;99.90;;;;;;5006372;28;20163;-67
2023/12/19 09:27:55;;;;;;;8.25;5.13;;;7.70;99.90;;;;;;5002258;28;20046;-67
2023/12/19 09:30:21;;;;;;;9.80;6.10;;;7.60;99.90;;;;;;4999966;28;20581;-67
2023/12/19 09:32:47;;;;;;;8.57;5.47;;;7.50;99.90;;;;;;5002787;28;20064;-67
2023/12/19 09:35:13;;;;;;;10.77;5.65;;;7.60;99.90;;;;;;5005834;28;20029;-67
2023/12/19 09:37:39;;;;;;;11.07;5.45;;;7.40;99.90;;;;;;5006118;28;20123;-67
2023/12/19 09:40:19;;;;;;;9.88;5.72;;;7.40;99.90;;;;;;5004262;28;20049;-67
2023/12/19 09:42:45;;;;;;;9.45;5.60;;;7.40;99.90;;;;;;5005278;28;20058;-67
2023/12/19 09:45:14;;;;;;;10.02;5.97;;;7.40;99.90;;;;;;5005804;28;20057;-67
2023/12/19 09:47:42;;;;;;;10.13;6.05;;;7.40;99.90;;;;;;5004428;28;20134;-68
2023/12/19 09:50:13;;;;;;;11.48;6.20;;;7.30;99.90;;;;;;5003912;28;20040;-68
2023/12/19 09:52:42;;;;;;;11.02;6.05;;;7.40;99.90;;;;;;5000318;28;20033;-68
2023/12/19 09:55:10;;;;;;;10.40;6.13;;;7.30;99.90;;;;;;5005799;28;20056;-66
2023/12/19 09:57:37;;;;;;;11.23;6.25;;;7.30;99.90;;;;;;5005263;28;20513;-67
2023/12/19 10:00:07;;;;;;;9.70;5.80;;;7.30;99.90;;;;;;5005359;28;20044;-67
2023/12/19 10:02:33;;;;;;;12.07;6.88;;;7.30;99.90;;;;;;4999283;28;20034;-67
2023/12/19 10:04:59;;;;;;;11.43;6.07;;;7.40;99.90;;;;;;5002253;28;20040;-67
2023/12/19 10:07:24;;;;;;;12.32;6.35;;;7.40;99.90;;;;;;5006004;28;20084;-67
2023/12/19 10:09:54;;;;;;;15.05;7.20;;;7.40;99.90;;;;;;5005661;28;20061;-67
2023/12/19 10:12:20;;;;;;;14.02;6.68;;;7.30;99.90;;;;;;5000797;28;20410;-67
2023/12/19 10:14:47;;;;;;;8.15;5.65;;;7.40;99.90;;;;;;5003817;28;20041;-67
2023/12/19 10:17:21;;;;;;;15.68;8.50;;;7.50;99.90;;;;;;5000585;28;20044;-67
2023/12/19 10:19:47;;;;;;;13.13;7.35;;;7.60;99.90;;;;;;5000481;28;20037;-67
2023/12/19 10:22:16;;;;;;;16.83;8.15;;;7.70;99.90;;;;;;5005208;28;20033;-67
2023/12/19 10:24:42;;;;;;;11.80;6.25;;;7.70;99.90;;;;;;5004899;28;20501;-68
2023/12/19 10:27:08;;;;;;;10.15;6.28;;;7.70;99.90;;;;;;5001702;28;20037;-67
2023/12/19 10:29:42;;;;;;;9.80;6.35;;;7.70;99.90;;;;;;5001830;28;20038;-67
2023/12/19 10:32:16;;;;;;;13.00;6.88;;;7.80;99.90;;;;;;5004897;28;20806;-67
2023/12/19 10:34:47;;;;;;;12.60;6.78;;;7.80;99.90;;;;;;5004932;28;20121;-67
2023/12/19 10:37:17;;;;;;;10.88;6.80;;;7.70;99.90;;;;;;5005525;28;20041;-67
2023/12/19 10:39:44;;;;;;;18.02;10.20;;;7.60;99.90;;;;;;5005263;28;20052;-68
2023/12/19 10:42:10;;;;;;;14.50;6.70;;;7.70;99.90;;;;;;5004259;28;20034;-67
2023/12/19 10:44:40;;;;;;;14.23;7.63;;;7.90;99.90;;;;;;5006662;28;20712;-68
2023/12/19 10:47:10;;;;;;;13.43;6.82;;;7.80;99.90;;;;;;5008954;28;20743;-67
2023/12/19 10:49:39;;;;;;;11.52;6.97;;;7.70;99.90;;;;;;5008786;28;20162;-68
2023/12/19 10:52:09;;;;;;;14.38;7.07;;;7.80;99.90;;;;;;5008488;28;20033;-67
2023/12/19 10:54:36;;;;;;;12.77;7.20;;;7.60;99.90;;;;;;5007422;28;20034;-67
2023/12/19 10:57:06;;;;;;;15.57;7.68;;;7.50;99.90;;;;;;5007245;28;20038;-67
2023/12/19 10:59:50;;;;;;;16.58;8.60;;;7.40;99.90;;;;;;5004994;28;20029;-67
2023/12/19 11:02:48;;;;;;;17.42;8.52;;;7.50;99.90;;;;;;5008232;28;20025;-67
2023/12/19 11:05:27;;;;;;;19.50;10.13;;;7.60;99.90;;;;;;5005542;28;20049;-67
2023/12/19 11:07:58;;;;;;;22.77;11.65;;;7.60;99.90;;;;;;5007973;28;20077;-68
2023/12/19 11:10:27;;;;;;;17.05;8.85;;;7.60;99.90;;;;;;5005024;28;20172;-68
2023/12/19 11:12:53;;;;;;;15.52;9.68;;;7.70;99.90;;;;;;5001225;28;20034;-68
2023/12/19 11:15:20;;;;;;;16.77;9.27;;;7.60;99.90;;;;;;5008602;28;20026;-68
2023/12/19 11:18:00;;;;;;;16.23;8.93;;;7.60;99.90;;;;;;5008076;28;20038;-68
2023/12/19 11:20:29;;;;;;;16.52;9.02;;;7.50;99.90;;;;;;5006170;28;20528;-68
2023/12/19 11:23:42;;;;;;;17.50;9.45;;;7.50;99.90;;;;;;5008234;28;20079;-67
2023/12/19 11:26:20;;;;;;;19.30;9.32;;;7.40;99.90;;;;;;5007388;28;20421;-68
2023/12/19 11:28:46;;;;;;;14.20;8.35;;;7.50;99.90;;;;;;5008271;28;20045;-68
2023/12/19 11:31:32;;;;;;;14.23;8.50;;;7.40;99.90;;;;;;5004327;28;20030;-67
2023/12/19 11:34:23;;;;;;;21.95;10.48;;;7.40;99.90;;;;;;5006411;28;20044;-67
2023/12/19 11:37:02;;;;;;;17.55;8.95;;;7.40;99.90;;;;;;5008128;28;20686;-67
2023/12/19 11:39:30;;;;;;;21.48;10.50;;;7.50;99.90;;;;;;4997789;28;20486;-67
2023/12/19 11:41:57;;;;;;;24.77;11.90;;;7.60;99.90;;;;;;5007430;28;20038;-68
2023/12/19 11:44:36;;;;;;;18.15;9.05;;;7.70;99.90;;;;;;5007731;28;20046;-68
2023/12/19 11:47:18;;;;;;;18.35;9.70;;;7.60;99.90;;;;;;5007807;28;20045;-68
2023/12/19 11:49:45;;;;;;;21.05;10.73;;;7.50;99.90;;;;;;5004356;28;20037;-69
2023/12/19 11:52:32;;;;;;;21.42;10.25;;;7.70;99.90;;;;;;5005088;28;20026;-68
2023/12/19 11:55:00;;;;;;;58.80;30.65;;;7.70;99.90;;;;;;5000985;28;20034;-68
2023/12/19 11:57:27;;;;;;;19.58;10.68;;;7.70;99.90;;;;;;5007792;28;20049;-68
2023/12/19 11:59:54;;;;;;;17.02;8.73;;;7.70;99.90;;;;;;5007785;28;20033;-67
2023/12/19 12:02:46;;;;;;;18.20;9.57;;;7.70;99.90;;;;;;5006693;28;20041;-68
2023/12/19 12:05:19;;;;;;;15.60;8.77;;;7.70;99.90;;;;;;5006065;28;20046;-69
2023/12/19 12:07:49;;;;;;;20.65;9.43;;;7.70;99.90;;;;;;4999494;28;20585;-69
2023/12/19 12:10:22;;;;;;;16.80;10.10;;;7.80;99.90;;;;;;5007017;28;20101;-69
2023/12/19 12:12:49;;;;;;;18.60;8.52;;;7.70;99.90;;;;;;4996463;28;20033;-68
2023/12/19 12:15:18;;;;;;;15.23;9.18;;;7.70;99.90;;;;;;5005313;28;20069;-67
2023/12/19 12:17:45;;;;;;;19.73;10.18;;;7.60;99.90;;;;;;5004677;28;20050;-68
2023/12/19 12:20:11;;;;;;;16.30;9.05;;;7.70;99.90;;;;;;5002955;28;20049;-68
2023/12/19 12:22:37;;;;;;;15.07;7.68;;;7.80;99.90;;;;;;5004629;28;20045;-68
2023/12/19 12:25:04;;;;;;;15.55;8.68;;;7.80;99.90;;;;;;5006959;28;20084;-67
2023/12/19 12:27:30;;;;;;;13.35;8.27;;;7.70;99.90;;;;;;5006411;28;20037;-68
2023/12/19 12:29:57;;;;;;;24.13;12.57;;;7.70;99.90;;;;;;5007292;28;20029;-68
2023/12/19 12:32:27;;;;;;;19.52;9.73;;;7.70;99.90;;;;;;5006353;28;20176;-68
2023/12/19 12:34:58;;;;;;;14.23;8.52;;;7.70;99.90;;;;;;5005837;28;20041;-67
2023/12/19 12:37:24;;;;;;;13.70;8.20;;;7.60;99.90;;;;;;4998161;28;20033;-65
2023/12/19 12:39:50;;;;;;;17.02;9.55;;;7.60;99.90;;;;;;4997002;28;20434;-64
2023/12/19 12:42:20;;;;;;;15.60;8.93;;;7.70;99.90;;;;;;5000879;28;20033;-69
2023/12/19 12:44:46;;;;;;;23.15;11.00;;;7.70;99.90;;;;;;4999572;28;20041;-66
2023/12/19 12:47:24;;;;;;;16.85;9.43;;;7.80;99.90;;;;;;4998738;28;20038;-63
2023/12/19 12:50:04;;;;;;;18.05;9.63;;;7.80;99.90;;;;;;4994245;28;20487;-64
2023/12/19 12:52:30;;;;;;;23.70;11.65;;;7.80;99.90;;;;;;4999610;28;20034;-65
2023/12/19 12:55:02;;;;;;;16.63;8.43;;;7.80;99.90;;;;;;4998718;28;20037;-64